Time;durP1;ratioP1;P1;durP2;ratioP2;P2;SDS_P1;SDS_P2;PMS_P1;PMS_P2;Temp;Humidity;BMP_temperature;BMP_pressure;BME280_temperature;BME280_humidity;BME280_pressure;Samples;Min_cycle;Max_cycle;Signal;HPM_P1;HPM_P2
2022/03/08 00:42:12;;;;;;;32.98;14.28;;;;;;;-3.72;85.43;100478.75;1875245;74;22115;-65
2022/03/08 00:44:43;;;;;;;35.30;17.15;;;;;;;-3.75;85.38;100469.72;1846261;75;21053;-65
2022/03/08 00:47:11;;;;;;;36.48;16.48;;;;;;;-3.71;85.37;100465.14;1835877;75;21891;-66
2022/03/08 00:49:39;;;;;;;32.98;16.62;;;;;;;-3.63;85.35;100462.34;1841527;75;20979;-66
2022/03/08 00:52:07;;;;;;;43.73;16.27;;;;;;;-3.54;85.37;100465.09;1837747;75;21007;-66
2022/03/08 00:54:34;;;;;;;35.85;14.63;;;;;;;-3.42;85.34;100469.59;1850410;75;21015;-66
2022/03/08 00:57:00;;;;;;;35.70;14.13;;;;;;;-3.31;85.26;100472.38;1849217;75;20990;-67
2022/03/08 00:59:27;;;;;;;31.43;14.23;;;;;;;-3.20;85.28;100468.35;1845737;75;21642;-66
2022/03/08 01:01:54;;;;;;;26.87;13.38;;;;;;;-3.10;85.13;100465.16;1836518;75;21019;-66
2022/03/08 01:04:21;;;;;;;28.87;12.50;;;;;;;-3.04;85.03;100467.83;1840864;75;21489;-66
2022/03/08 01:06:47;;;;;;;23.07;11.77;;;;;;;-2.96;85.05;100468.84;1845652;75;20926;-66
2022/03/08 01:09:14;;;;;;;25.40;11.43;;;;;;;-2.92;84.83;100462.95;1842371;75;21008;-66
2022/03/08 01:11:42;;;;;;;22.98;10.93;;;;;;;-2.85;84.89;100457.98;1843883;75;21240;-67
2022/03/08 01:14:10;;;;;;;20.72;11.60;;;;;;;-2.77;84.96;100456.43;1853163;75;20975;-67
2022/03/08 01:16:37;;;;;;;21.77;12.30;;;;;;;-2.76;84.83;100455.59;1842853;75;20974;-67
2022/03/08 01:19:06;;;;;;;28.73;12.28;;;;;;;-2.71;84.93;100459.09;1837429;75;21013;-67
2022/03/08 01:21:36;;;;;;;27.93;11.70;;;;;;;-2.72;84.73;100465.02;1847047;75;20968;-66
2022/03/08 01:24:04;;;;;;;34.98;12.50;;;;;;;-2.72;84.66;100457.35;1856822;75;21122;-66
2022/03/08 01:26:31;;;;;;;25.62;12.95;;;;;;;-2.74;84.80;100461.59;1862845;75;20979;-66
2022/03/08 01:28:59;;;;;;;23.10;12.35;;;;;;;-2.74;84.87;100453.92;1854038;75;20982;-66
2022/03/08 01:31:25;;;;;;;;;;;;;;;-2.74;84.85;100453.92;1845778;75;20985;-65
2022/03/08 01:33:54;;;;;;;25.50;12.57;;;;;;;-2.77;84.87;100438.54;1844602;75;20158;-66
2022/03/08 01:36:22;;;;;;;28.70;14.65;;;;;;;-2.74;85.02;100436.03;1839537;75;21078;-66
2022/03/08 01:38:49;;;;;;;43.92;16.10;;;;;;;-2.71;84.99;100443.75;1850696;75;21116;-66
2022/03/08 01:41:16;;;;;;;44.40;15.08;;;;;;;-2.76;84.83;100442.80;1845477;75;21083;-66
2022/03/08 01:43:45;;;;;;;45.45;14.53;;;;;;;-2.77;84.99;100443.66;1829041;77;20931;-66
2022/03/08 01:46:14;;;;;;;32.90;14.20;;;;;;;-2.82;84.87;100451.64;1791346;78;21096;-66
2022/03/08 01:48:41;;;;;;;30.30;12.98;;;;;;;-2.86;84.96;100438.34;1830133;77;21616;-66
2022/03/08 01:51:08;;;;;;;23.95;11.73;;;;;;;-2.83;85.07;100446.07;1829575;77;20898;-66
2022/03/08 01:53:37;;;;;;;31.73;11.65;;;;;;;-2.87;84.94;100446.86;1828972;76;21543;-66
2022/03/08 01:56:05;;;;;;;22.87;11.22;;;;;;;-2.92;84.82;100441.23;1825599;77;20980;-66
2022/03/08 01:58:38;;;;;;;19.40;10.60;;;;;;;-2.94;84.96;100445.47;1832217;77;21533;-66
2022/03/08 02:01:07;;;;;;;19.62;11.15;;;;;;;-2.96;84.87;100443.72;1823026;76;21042;-66
2022/03/08 02:03:34;;;;;;;22.45;10.08;;;;;;;-3.08;84.73;100440.52;1826290;78;20913;-66
2022/03/08 02:06:02;;;;;;;17.77;10.25;;;;;;;-3.13;84.89;100437.01;1830342;77;21039;-66
2022/03/08 02:08:29;;;;;;;21.73;10.18;;;;;;;-3.16;84.92;100434.39;1833293;76;21014;-66
2022/03/08 02:10:56;;;;;;;15.43;10.00;;;;;;;-3.16;85.07;100435.25;1831296;77;20988;-66
2022/03/08 02:13:26;;;;;;;18.23;10.70;;;;;;;-3.20;84.89;100428.77;1824613;78;22156;-66
2022/03/08 02:15:53;;;;;;;20.72;10.85;;;;;;;-3.27;84.81;100436.73;1826444;78;21591;-66
2022/03/08 02:18:26;;;;;;;19.30;9.85;;;;;;;-3.31;84.84;100434.92;1827378;77;21632;-66
2022/03/08 02:20:53;;;;;;;17.65;9.30;;;;;;;-3.31;85.09;100432.80;1830212;77;21565;-66
2022/03/08 02:23:20;;;;;;;17.25;9.85;;;;;;;-3.34;85.01;100431.46;1831199;78;21073;-66
2022/03/08 02:25:46;;;;;;;18.87;11.10;;;;;;;-3.33;85.20;100424.23;1834006;76;21191;-66
2022/03/08 02:28:13;;;;;;;16.20;10.05;;;;;;;-3.29;85.26;100427.31;1823656;77;21055;-67
2022/03/08 02:30:40;;;;;;;16.37;9.18;;;;;;;-3.29;85.29;100420.50;1799915;77;20933;-66
2022/03/08 02:33:09;;;;;;;14.07;9.05;;;;;;;-3.26;85.31;100433.75;1830495;77;21481;-66
2022/03/08 02:35:35;;;;;;;16.32;8.53;;;;;;;-3.29;85.26;100427.31;1827184;77;21054;-66
2022/03/08 02:38:05;;;;;;;15.28;8.93;;;;;;;-3.32;85.25;100434.91;1831741;77;22035;-66
2022/03/08 02:40:39;;;;;;;13.13;8.78;;;;;;;-3.32;85.33;100429.80;1828555;77;20933;-66
2022/03/08 02:43:09;;;;;;;13.90;7.92;;;;;;;-3.34;85.34;100432.31;1838384;77;21002;-66
2022/03/08 02:45:36;;;;;;;13.48;8.35;;;;;;;-3.40;85.15;100420.28;1844682;77;20959;-66
2022/03/08 02:48:05;;;;;;;18.92;9.93;;;;;;;-3.50;85.08;100424.77;1840571;77;20983;-66
2022/03/08 02:50:32;;;;;;;15.60;8.98;;;;;;;-3.54;85.18;100428.08;1822888;77;21070;-66
2022/03/08 02:52:59;;;;;;;14.38;8.83;;;;;;;-3.57;85.19;100424.19;1834336;77;21147;-66
2022/03/08 02:55:30;;;;;;;12.85;7.62;;;;;;;-3.62;85.13;100443.64;1810842;77;21290;-66
2022/03/08 02:57:57;;;;;;;12.50;6.67;;;;;;;-3.62;85.32;100444.50;1842349;77;20934;-66
2022/03/08 03:00:27;;;;;;;15.85;7.37;;;;;;;-3.63;85.40;100441.93;1831804;77;21024;-66
2022/03/08 03:02:54;;;;;;;8.98;6.65;;;;;;;-3.67;85.24;100441.02;1824943;77;21065;-66
2022/03/08 03:05:21;;;;;;;;;;;;;;;-3.69;85.31;100440.11;1845054;77;21232;-66
2022/03/08 03:07:48;;;;;;;9.43;5.42;;;;;;;-3.74;85.30;100433.17;1841016;77;20128;-66
2022/03/08 03:10:19;;;;;;;10.13;6.03;;;;;;;-3.77;85.35;100431.84;1843890;77;20983;-66
2022/03/08 03:12:46;;;;;;;10.82;6.87;;;;;;;-3.82;85.38;100435.13;1837304;77;21541;-66
2022/03/08 03:15:16;;;;;;;14.07;6.40;;;;;;;-3.84;85.43;100438.09;1842091;77;21237;-66
2022/03/08 03:17:43;;;;;;;11.85;7.92;;;;;;;-3.83;85.54;100431.29;1827977;77;21032;-66
2022/03/08 03:20:14;;;;;;;11.43;6.80;;;;;;;-3.78;85.78;100432.64;1796477;78;21367;-67
2022/03/08 03:22:42;;;;;;;10.82;7.15;;;;;;;-3.73;85.82;100437.44;1834407;76;20979;-66
2022/03/08 03:25:10;;;;;;;13.22;7.80;;;;;;;-3.74;85.68;100434.45;1839744;77;21053;-66
2022/03/08 03:27:38;;;;;;;8.50;6.75;;;;;;;-3.72;85.76;100439.19;1818453;77;21082;-66
2022/03/08 03:30:09;;;;;;;10.82;6.50;;;;;;;-3.73;85.69;100431.06;1840400;77;21970;-66
2022/03/08 03:32:37;;;;;;;12.35;6.70;;;;;;;-3.75;85.63;100436.16;1840587;76;20985;-66
2022/03/08 03:35:05;;;;;;;13.83;8.23;;;;;;;-3.77;85.56;100434.39;1840429;77;21006;-66
2022/03/08 03:37:33;;;;;;;13.90;7.87;;;;;;;-3.79;85.67;100435.62;1843022;77;21058;-67
2022/03/08 03:40:00;;;;;;;10.78;7.28;;;;;;;-3.77;85.82;100428.02;1840209;77;22373;-66
2022/03/08 03:42:27;;;;;;;11.48;7.83;;;;;;;-3.74;85.89;100433.17;1832164;77;20987;-66
2022/03/08 03:44:53;;;;;;;10.08;6.87;;;;;;;-3.76;85.78;100437.37;1836798;76;21527;-66
2022/03/08 03:47:20;;;;;;;11.97;7.27;;;;;;;-3.77;85.77;100445.88;1830839;77;21445;-67
2022/03/08 03:49:47;;;;;;;10.97;7.23;;;;;;;-3.82;85.72;100449.16;1836727;77;21001;-66
2022/03/08 03:52:14;;;;;;;10.63;6.60;;;;;;;-3.87;85.69;100437.99;1832654;77;22192;-66
2022/03/08 03:54:41;;;;;;;12.53;6.92;;;;;;;-3.91;85.66;100438.77;1833734;77;20936;-66
2022/03/08 03:57:09;;;;;;;9.55;6.97;;;;;;;-3.94;85.77;100443.80;1834051;76;21068;-66
2022/03/08 03:59:36;;;;;;;10.70;6.95;;;;;;;-3.96;85.81;100437.79;1829744;77;20912;-66
2022/03/08 04:02:03;;;;;;;10.83;7.17;;;;;;;-3.99;85.84;100436.45;1832770;76;21523;-66
2022/03/08 04:04:30;;;;;;;12.30;7.28;;;;;;;-4.00;85.94;100428.36;1831776;76;21903;-67
2022/03/08 04:06:57;;;;;;;15.10;7.83;;;;;;;-4.00;85.95;100443.66;1831829;77;21006;-67
2022/03/08 04:09:23;;;;;;;8.80;6.97;;;;;;;-3.99;86.04;100436.45;1830765;76;21382;-67
2022/03/08 04:11:50;;;;;;;17.25;6.83;;;;;;;-3.98;86.12;100441.98;1835897;76;20935;-66
2022/03/08 04:14:20;;;;;;;10.40;7.20;;;;;;;-3.99;86.05;100447.93;1831158;77;21560;-66
2022/03/08 04:16:46;;;;;;;13.13;7.40;;;;;;;-3.93;86.18;100448.48;1836428;77;21515;-67
2022/03/08 04:19:13;;;;;;;14.43;8.27;;;;;;;-3.89;86.26;100447.33;1836772;76;20915;-67
2022/03/08 04:21:40;;;;;;;14.57;8.77;;;;;;;-3.87;86.24;100454.58;1835267;77;21002;-67
2022/03/08 04:24:07;;;;;;;17.32;8.90;;;;;;;-3.85;86.27;100449.10;1835027;76;21037;-67
2022/03/08 04:26:34;;;;;;;14.70;8.50;;;;;;;-3.84;86.17;100447.02;1834331;77;21538;-66
2022/03/08 04:29:01;;;;;;;16.73;8.88;;;;;;;-3.88;86.07;100449.03;1835115;76;22226;-67
2022/03/08 04:31:28;;;;;;;10.80;7.40;;;;;;;-3.87;86.21;100450.75;1838225;77;20972;-67
2022/03/08 04:33:54;;;;;;;13.95;9.35;;;;;;;-3.80;86.27;100448.36;1833995;76;21563;-67
2022/03/08 04:36:21;;;;;;;18.83;10.13;;;;;;;-3.84;86.14;100453.40;1831511;77;21464;-67
2022/03/08 04:38:48;;;;;;;18.12;9.08;;;;;;;-3.86;86.10;100455.05;1836838;76;21110;-67
2022/03/08 04:41:15;;;;;;;15.50;9.40;;;;;;;-3.91;85.92;100454.07;1835378;77;21465;-66
2022/03/08 04:43:42;;;;;;;15.77;8.43;;;;;;;-3.91;85.92;100454.07;1831503;77;21371;-66
2022/03/08 04:46:09;;;;;;;13.78;7.65;;;;;;;-3.94;85.97;100448.05;1833707;76;21029;-65
2022/03/08 04:48:36;;;;;;;;;;;;;;;-3.94;86.17;100443.80;1840226;76;21052;-66
2022/03/08 04:51:03;;;;;;;11.83;7.83;;;;;;;-3.96;86.10;100445.45;1840809;77;20104;-66
2022/03/08 04:53:29;;;;;;;16.27;8.70;;;;;;;-4.02;86.03;100452.96;1838445;77;21534;-66
2022/03/08 04:55:56;;;;;;;11.33;7.37;;;;;;;-4.04;86.10;100441.85;1836930;76;20938;-66
2022/03/08 04:58:23;;;;;;;14.97;8.80;;;;;;;-4.05;86.06;100447.79;1836812;76;20860;-66
2022/03/08 05:00:49;;;;;;;19.50;10.50;;;;;;;-4.06;86.17;100451.18;1839135;77;21109;-67
2022/03/08 05:03:16;;;;;;;19.20;9.73;;;;;;;-4.11;86.11;100442.55;1835351;76;20961;-67
2022/03/08 05:05:43;;;;;;;23.22;11.55;;;;;;;-4.16;86.09;100444.98;1841915;76;21887;-67
2022/03/08 05:08:10;;;;;;;19.42;11.05;;;;;;;-4.18;86.20;100440.67;1839713;77;21032;-65
2022/03/08 05:10:36;;;;;;;23.67;11.95;;;;;;;-4.19;86.29;100441.50;1839411;77;20974;-66
2022/03/08 05:13:03;;;;;;;19.17;10.83;;;;;;;-4.19;86.25;100446.61;1838072;76;21049;-67
2022/03/08 05:15:31;;;;;;;24.92;12.20;;;;;;;-4.19;86.29;100445.33;1807420;77;23165;-67
2022/03/08 05:17:58;;;;;;;23.47;12.37;;;;;;;-4.20;86.36;100450.85;1796921;77;21655;-66
2022/03/08 05:20:25;;;;;;;26.45;13.20;;;;;;;-4.18;86.35;100450.87;1799114;77;20985;-66
2022/03/08 05:22:52;;;;;;;28.90;13.68;;;;;;;-4.20;86.32;100450.85;1796598;77;21542;-67
2022/03/08 05:25:38;;;;;;;32.17;16.67;;;;;;;-4.24;86.26;100455.83;1808196;77;20978;-66
2022/03/08 05:28:06;;;;;;;30.90;15.70;;;;;;;-4.27;86.29;100456.61;1719461;82;21114;-66
2022/03/08 05:30:33;;;;;;;34.40;16.42;;;;;;;-4.27;86.37;100457.47;1726198;81;21859;-66
2022/03/08 05:33:01;;;;;;;39.27;17.02;;;;;;;-4.23;86.42;100460.09;1701603;83;21058;-67
2022/03/08 05:35:27;;;;;;;46.02;21.23;;;;;;;-4.21;86.47;100462.27;1705069;83;21538;-67
2022/03/08 05:39:28;;;;;;;47.70;24.85;;;;;;;-3.94;86.84;100463.35;1797109;79;23256;-66
2022/03/08 05:41:55;;;;;;;50.40;24.37;;;;;;;-3.85;86.58;100464.41;1777781;80;20998;-66
2022/03/08 05:44:22;;;;;;;54.88;24.65;;;;;;;-3.80;86.56;100463.67;1782165;79;21905;-67
2022/03/08 05:46:50;;;;;;;52.65;27.25;;;;;;;-3.75;86.52;100472.27;1772387;80;21052;-66
2022/03/08 05:49:19;;;;;;;61.88;27.55;;;;;;;-3.67;86.50;100468.20;1719483;82;21065;-67
2022/03/08 05:51:46;;;;;;;64.85;31.37;;;;;;;-3.60;86.50;100468.80;1703968;81;21050;-67
2022/03/08 05:54:13;;;;;;;65.95;30.15;;;;;;;-3.53;86.38;100470.63;1715548;81;21018;-67
2022/03/08 05:56:42;;;;;;;78.02;34.80;;;;;;;-3.46;86.34;100472.92;1719337;81;21432;-68
2022/03/08 05:59:12;;;;;;;72.80;32.48;;;;;;;-3.35;86.59;100470.61;1724821;82;20951;-67
2022/03/08 06:01:39;;;;;;;73.10;34.08;;;;;;;-3.25;86.39;100457.17;1713266;82;21559;-68
2022/03/08 06:04:06;;;;;;;;;;;;;;;-3.20;86.29;100478.57;1719674;82;21021;-67
2022/03/08 06:06:33;;;;;;;77.50;32.77;;;;;;;-3.15;86.24;100474.42;1718352;82;20525;-67
2022/03/08 06:08:59;;;;;;;76.62;32.13;;;;;;;-3.08;86.29;100476.28;1716049;82;21629;-72
2022/03/08 06:11:26;;;;;;;81.60;34.03;;;;;;;-3.00;86.29;100470.87;1722687;82;21066;-67
2022/03/08 06:13:53;;;;;;;78.50;35.37;;;;;;;-2.81;86.36;100477.64;1723954;82;20939;-66
2022/03/08 06:16:19;;;;;;;97.37;38.70;;;;;;;-2.61;86.34;100472.89;1727060;82;21082;-67
2022/03/08 06:18:46;;;;;;;88.90;35.58;;;;;;;-2.43;86.33;100482.60;1728372;81;21023;-68
2022/03/08 06:21:13;;;;;;;52.45;23.22;;;;;;;-2.13;86.41;100486.08;1729247;82;21054;-68
2022/03/08 06:23:40;;;;;;;43.40;19.10;;;;;;;-2.06;86.01;100479.81;1723314;82;21031;-67
2022/03/08 06:26:09;;;;;;;34.98;20.17;;;;;;;-1.85;86.02;100479.69;1731043;82;20915;-68
2022/03/08 06:28:54;;;;;;;32.75;18.12;;;;;;;-1.39;86.75;100476.52;1723983;81;21417;-67
2022/03/08 06:31:21;;;;;;;28.05;14.93;;;;;;;-0.74;86.58;100468.75;1729316;81;21041;-67
2022/03/08 06:33:48;;;;;;;38.43;18.20;;;;;;;0.01;86.43;100466.02;1719471;82;21146;-68
2022/03/08 06:36:15;;;;;;;39.75;19.98;;;;;;;0.69;85.92;100462.58;1727472;81;21897;-68
2022/03/08 06:38:42;;;;;;;47.20;21.53;;;;;;;1.18;85.95;100465.34;1745993;81;21005;-68
2022/03/08 06:41:09;;;;;;;50.35;23.18;;;;;;;1.50;84.89;100468.83;1738139;81;20983;-68
2022/03/08 06:43:35;;;;;;;36.08;20.37;;;;;;;1.77;84.68;100466.72;1750056;81;21037;-68
2022/03/08 06:46:03;;;;;;;33.48;19.05;;;;;;;2.05;84.29;100458.15;1740455;81;21046;-67
2022/03/08 06:48:30;;;;;;;32.15;17.23;;;;;;;2.40;84.18;100451.20;1723319;81;21578;-67
2022/03/08 06:50:57;;;;;;;;;;;;;;;2.80;83.93;100458.84;1750827;80;21013;-68
2022/03/08 06:53:26;;;;;;;27.25;15.70;;;;;;;3.19;83.73;100464.66;1706798;83;20453;-69
2022/03/08 06:55:53;;;;;;;22.60;13.90;;;;;;;3.60;83.92;100455.81;1716497;81;21033;-69
2022/03/08 06:58:20;;;;;;;22.90;13.73;;;;;;;3.95;83.53;100447.80;1730844;80;21666;-68
2022/03/08 07:00:47;;;;;;;23.42;13.88;;;;;;;4.18;83.28;100459.21;1733364;80;20986;-68
2022/03/08 07:03:16;;;;;;;25.10;18.45;;;;;;;4.39;83.27;100463.74;1731185;81;21603;-68
2022/03/08 07:05:42;;;;;;;19.73;11.22;;;;;;;4.73;84.01;100456.47;1726948;81;20960;-68
2022/03/08 07:08:10;;;;;;;15.32;11.00;;;;;;;4.97;83.99;100450.16;1726622;81;21011;-69
2022/03/08 07:10:36;;;;;;;;;;;;;;;5.12;84.13;100457.70;1711851;81;21037;-69
2022/03/08 07:13:03;;;;;;;14.43;9.68;;;;;;;5.11;83.49;100452.12;1710260;81;21202;-66
2022/03/08 07:15:30;;;;;;;17.75;9.63;;;;;;;5.07;83.54;100450.47;1707000;83;21705;-67
2022/03/08 07:17:57;;;;;;;19.73;12.28;;;;;;;5.05;83.22;100450.06;1746128;81;20994;-67
2022/03/08 07:20:24;;;;;;;16.95;10.58;;;;;;;4.97;83.22;100463.09;1720880;81;21007;-67
2022/03/08 07:22:50;;;;;;;17.53;11.13;;;;;;;4.91;84.14;100458.00;1721558;81;21614;-68
2022/03/08 07:25:17;;;;;;;22.35;12.43;;;;;;;4.85;83.78;100458.08;1721716;81;20994;-67
2022/03/08 07:27:44;;;;;;;18.73;12.98;;;;;;;4.86;83.95;100459.78;1732808;81;21001;-67
2022/03/08 07:30:12;;;;;;;21.33;14.20;;;;;;;5.06;84.34;100470.73;1725062;81;22650;-67
2022/03/08 07:32:38;;;;;;;;;;;;;;;5.13;84.35;100464.61;1714856;81;21001;-67
2022/03/08 07:35:07;;;;;;;25.23;14.50;;;;;;;4.93;84.01;100471.78;1714158;81;22409;-67
2022/03/08 07:37:38;;;;;;;18.65;11.97;;;;;;;4.60;84.34;100471.29;1710298;83;21247;-66
2022/03/08 07:40:08;;;;;;;17.07;11.70;;;;;;;4.43;84.72;100462.86;1694472;83;21106;-66
2022/03/08 07:42:35;;;;;;;23.57;12.53;;;;;;;4.18;85.25;100459.21;1731436;81;20979;-66
2022/03/08 07:45:02;;;;;;;20.25;14.85;;;;;;;3.97;85.47;100458.10;1716548;82;21031;-66
2022/03/08 07:47:29;;;;;;;28.95;21.48;;;;;;;3.78;85.66;100467.72;1713003;82;21096;-66
2022/03/08 07:49:55;;;;;;;26.93;17.90;;;;;;;3.73;86.54;100475.52;1712263;82;20970;-66
2022/03/08 07:52:24;;;;;;;19.80;12.18;;;;;;;3.80;87.09;100474.59;1710755;82;20989;-67
2022/03/08 07:54:51;;;;;;;14.70;8.93;;;;;;;3.92;87.27;100475.36;1690944;82;21675;-66
2022/03/08 07:57:19;;;;;;;14.87;8.83;;;;;;;4.11;87.89;100478.22;1712534;82;21074;-66
2022/03/08 07:59:46;;;;;;;16.90;10.15;;;;;;;4.29;88.29;100480.24;1716819;82;21462;-66
2022/03/08 08:02:13;;;;;;;17.57;9.48;;;;;;;4.43;88.16;100474.50;1682828;83;25350;-66
2022/03/08 08:04:40;;;;;;;16.93;10.50;;;;;;;4.48;87.87;100471.40;1708967;82;21033;-66
2022/03/08 08:07:06;;;;;;;;;;;;;;;4.56;88.05;100468.74;1718865;82;21683;-66
2022/03/08 08:09:34;;;;;;;12.03;7.50;;;;;;;4.67;88.12;100470.33;1707947;82;20088;-66
2022/03/08 08:12:02;;;;;;;10.13;6.58;;;;;;;4.74;88.10;100472.88;1710249;82;21177;-66
2022/03/08 08:14:29;;;;;;;14.60;9.10;;;;;;;4.76;87.61;100473.69;1710500;82;20974;-66
2022/03/08 08:16:56;;;;;;;10.90;6.40;;;;;;;4.82;87.86;100473.64;1686841;83;28490;-66
2022/03/08 08:19:24;;;;;;;8.18;5.42;;;;;;;4.91;88.02;100480.00;1712680;81;21033;-66
2022/03/08 08:21:50;;;;;;;10.78;6.10;;;;;;;4.98;87.61;100479.03;1718736;81;21034;-66
2022/03/08 08:24:17;;;;;;;7.87;5.63;;;;;;;5.00;87.45;100488.94;1710147;82;21174;-66
2022/03/08 08:26:44;;;;;;;8.23;5.03;;;;;;;4.83;86.81;100486.55;1711645;82;21013;-66
2022/03/08 08:29:11;;;;;;;12.55;5.05;;;;;;;4.87;86.89;100487.36;1710875;82;20982;-66
2022/03/08 08:31:38;;;;;;;8.43;5.78;;;;;;;4.66;86.15;100497.09;1708351;82;21033;-66
2022/03/08 08:34:04;;;;;;;10.05;5.30;;;;;;;4.71;87.07;100499.63;1710998;81;21596;-66
2022/03/08 08:36:31;;;;;;;11.08;6.60;;;;;;;4.58;86.03;100505.80;1715225;82;21566;-66
2022/03/08 08:38:58;;;;;;;8.38;5.70;;;;;;;4.33;85.76;100500.01;1703905;82;21098;-66
2022/03/08 08:41:25;;;;;;;12.85;6.20;;;;;;;4.32;86.60;100490.55;1696395;83;20964;-66
2022/03/08 08:43:52;;;;;;;9.20;6.27;;;;;;;4.53;87.25;100485.14;1698449;83;21565;-66
2022/03/08 08:46:18;;;;;;;9.73;6.60;;;;;;;4.74;87.32;100478.05;1698488;83;21075;-66
2022/03/08 08:48:45;;;;;;;12.95;6.00;;;;;;;4.79;86.83;100463.30;1696411;83;21477;-66
2022/03/08 08:51:12;;;;;;;8.37;6.03;;;;;;;4.92;87.13;100459.70;1699427;83;21053;-67
2022/03/08 08:53:38;;;;;;;9.38;6.58;;;;;;;5.08;87.31;100455.20;1697839;83;21369;-66
2022/03/08 08:56:06;;;;;;;15.63;6.53;;;;;;;5.21;87.14;100451.58;1696216;83;20999;-66
2022/03/08 08:58:32;;;;;;;9.28;5.83;;;;;;;5.30;87.01;100455.33;1703353;83;21065;-66
2022/03/08 09:01:00;;;;;;;12.35;6.17;;;;;;;5.31;86.86;100427.69;1693546;83;21126;-66
2022/03/08 09:03:26;;;;;;;9.68;5.05;;;;;;;5.50;86.83;100440.79;1694772;83;20970;-66
2022/03/08 09:05:53;;;;;;;8.47;5.30;;;;;;;5.55;86.49;100436.41;1698842;82;21063;-66
2022/03/08 09:08:24;;;;;;;9.63;4.53;;;;;;;5.61;86.50;100444.07;1694074;83;21034;-66
2022/03/08 09:10:48;;;;;;;5.95;4.70;;;;;;;5.66;86.19;100437.95;1691757;83;21032;-66
2022/03/08 09:13:15;;;;;;;7.33;3.90;;;;;;;5.67;86.17;100435.80;1693388;83;21404;-66
2022/03/08 09:15:41;;;;;;;5.72;3.98;;;;;;;5.71;86.00;100435.70;1697747;83;21126;-66
2022/03/08 09:18:11;;;;;;;5.77;2.77;;;;;;;5.74;85.86;100430.91;1698449;83;20946;-66
2022/03/08 09:20:40;;;;;;;7.33;4.17;;;;;;;5.78;85.86;100415.75;1695915;83;21091;-65
2022/03/08 09:23:07;;;;;;;8.73;4.40;;;;;;;5.79;85.76;100411.81;1696064;83;20967;-65
2022/03/08 09:25:34;;;;;;;5.25;3.20;;;;;;;5.83;85.75;100406.16;1697315;83;21465;-65
2022/03/08 09:28:02;;;;;;;6.80;4.45;;;;;;;5.91;85.81;100404.30;1694021;83;24383;-66
2022/03/08 09:30:31;;;;;;;5.33;3.62;;;;;;;6.05;85.92;100400.20;1700492;83;20923;-66
2022/03/08 09:32:58;;;;;;;7.58;4.60;;;;;;;6.14;85.69;100391.41;1699465;83;21077;-66
2022/03/08 09:35:26;;;;;;;7.97;4.67;;;;;;;6.23;85.75;100385.59;1701012;83;26500;-66
2022/03/08 09:37:55;;;;;;;8.18;4.45;;;;;;;6.34;85.69;100384.09;1693589;83;21029;-66
2022/03/08 09:40:23;;;;;;;10.90;5.78;;;;;;;6.40;85.34;100390.90;1706725;83;21569;-67
2022/03/08 09:42:51;;;;;;;;;;;;;;;6.39;85.33;100384.86;1708829;82;21508;-66
2022/03/08 09:45:18;;;;;;;7.58;3.45;;;;;;;6.46;85.18;100376.06;1702156;82;20537;-66
2022/03/08 09:47:46;;;;;;;7.40;4.03;;;;;;;6.45;84.72;100371.77;1706450;82;21061;-70
2022/03/08 09:50:14;;;;;;;4.95;3.33;;;;;;;6.37;84.67;100368.47;1704949;83;21291;-66
2022/03/08 09:52:46;;;;;;;8.80;3.85;;;;;;;6.46;84.91;100363.53;1708968;82;21029;-66
2022/03/08 09:57:13;;;;;;;13.60;4.97;;;;;;;6.73;84.69;100366.02;1865678;74;22396;-65
2022/03/08 09:59:42;;;;;;;7.05;3.67;;;;;;;6.79;84.81;100376.26;1838901;76;20963;-67
2022/03/08 10:02:16;;;;;;;7.42;3.90;;;;;;;6.92;84.70;100377.71;1834048;77;21724;-65
2022/03/08 10:04:47;;;;;;;7.15;4.25;;;;;;;7.03;84.51;100374.00;1844943;75;20920;-66
2022/03/08 10:07:14;;;;;;;5.03;3.30;;;;;;;7.16;84.49;100385.83;1809038;77;20934;-68
2022/03/08 10:09:57;;;;;;;8.23;3.50;;;;;;;7.24;84.27;100380.47;1844063;75;21038;-68
2022/03/08 10:12:24;;;;;;;4.42;2.87;;;;;;;7.27;83.82;100381.70;1834110;77;22268;-67
2022/03/08 10:14:52;;;;;;;3.30;2.50;;;;;;;7.28;83.92;100384.69;1836811;76;21076;-67
2022/03/08 10:17:39;;;;;;;;;;;;;;;7.37;83.90;100378.85;1840418;76;20974;-67
2022/03/08 10:20:10;;;;;;;4.40;2.27;;;;;;;7.39;83.14;100386.17;1837722;75;20103;-67
2022/03/08 10:22:44;;;;;;;3.60;2.37;;;;;;;7.23;82.96;100382.22;1835911;75;20947;-67
2022/03/08 10:25:22;;;;;;;5.55;3.08;;;;;;;7.32;83.03;100384.59;1847075;75;21611;-67
2022/03/08 10:28:00;;;;;;;5.85;2.87;;;;;;;7.46;83.08;100385.57;1808349;77;21274;-67
2022/03/08 10:30:32;;;;;;;2.87;2.12;;;;;;;7.48;82.76;100386.81;1831105;75;21048;-68
2022/03/08 10:33:04;;;;;;;5.17;2.77;;;;;;;7.54;82.53;100389.30;1827580;75;21145;-67
2022/03/08 10:39:13;;;;;;;3.72;2.85;;;;;;;7.59;82.24;100379.64;1857339;75;22640;-66
2022/03/08 10:42:41;;;;;;;4.50;2.52;;;;;;;7.73;82.02;100394.45;1858835;75;22853;-66
2022/03/08 10:45:16;;;;;;;2.72;1.87;;;;;;;7.69;81.87;100391.50;1850680;75;20927;-66
2022/03/08 10:47:50;;;;;;;6.08;2.05;;;;;;;7.70;81.59;100390.63;1849754;75;21439;-65
2022/03/08 10:50:20;;;;;;;3.12;1.77;;;;;;;7.66;81.46;100388.98;1851656;75;20969;-67
2022/03/08 10:52:51;;;;;;;15.32;2.70;;;;;;;7.70;81.57;100385.44;1819798;77;21009;-68
2022/03/08 10:55:34;;;;;;;9.18;1.70;;;;;;;7.76;80.97;100385.27;1845358;75;20906;-67
2022/03/08 10:58:10;;;;;;;4.35;2.20;;;;;;;7.74;80.48;100384.45;1814371;75;21016;-68
2022/03/08 11:00:49;;;;;;;5.62;2.20;;;;;;;7.61;80.21;100379.14;1852222;75;21084;-68
2022/03/08 11:04:22;;;;;;;5.37;2.27;;;;;;;7.80;80.59;100379.09;1866337;76;22738;-68
2022/03/08 11:06:52;;;;;;;4.42;2.05;;;;;;;7.96;81.26;100380.02;1819961;77;21029;-69
2022/03/08 11:09:21;;;;;;;3.50;2.15;;;;;;;8.22;80.59;100382.77;1825657;77;22011;-66
2022/03/08 11:11:48;;;;;;;7.47;2.37;;;;;;;8.21;80.02;100378.47;1778545;78;21492;-69
2022/03/08 11:14:17;;;;;;;4.85;2.62;;;;;;;8.28;80.00;100373.48;1820070;77;20978;-68
2022/03/08 11:16:50;;;;;;;4.72;2.67;;;;;;;8.37;80.16;100369.77;1819411;77;21034;-69
2022/03/08 11:19:16;;;;;;;5.20;3.00;;;;;;;8.36;79.40;100364.62;1821509;77;20928;-68
2022/03/08 11:21:44;;;;;;;6.83;2.90;;;;;;;8.34;79.43;100366.41;1826087;77;21416;-69
2022/03/08 11:24:12;;;;;;;5.42;3.10;;;;;;;8.37;79.50;100363.72;1817153;77;21614;-68
2022/03/08 11:26:42;;;;;;;4.85;2.75;;;;;;;8.40;79.13;100366.27;1823204;78;20920;-69
2022/03/08 11:29:10;;;;;;;4.33;2.95;;;;;;;8.20;77.10;100370.23;1822269;77;20949;-69
2022/03/08 11:31:40;;;;;;;5.40;3.60;;;;;;;7.93;77.51;100364.50;1823464;77;20901;-69
2022/03/08 11:34:40;;;;;;;4.20;2.80;;;;;;;7.90;78.72;100352.84;1800094;78;23021;-69
2022/03/08 11:37:17;;;;;;;5.78;3.45;;;;;;;7.91;78.33;100351.97;1815990;77;21493;-68
2022/03/08 11:39:47;;;;;;;7.67;3.20;;;;;;;7.89;77.78;100357.65;1810468;77;20968;-68
2022/03/08 11:42:31;;;;;;;7.60;2.00;;;;;;;7.79;76.39;100348.80;1806228;77;21091;-69
2022/03/08 11:45:03;;;;;;;2.15;1.25;;;;;;;7.75;77.16;100352.35;1817408;77;21099;-67
2022/03/08 11:47:43;;;;;;;2.85;1.55;;;;;;;7.88;77.80;100349.45;1810565;77;21118;-68
2022/03/08 11:50:31;;;;;;;4.35;1.92;;;;;;;7.87;76.18;100350.33;1811206;77;20982;-68
2022/03/08 11:53:09;;;;;;;4.72;2.65;;;;;;;7.78;74.64;100343.62;1810655;77;20997;-68
2022/03/08 11:55:55;;;;;;;4.80;1.98;;;;;;;7.60;74.21;100345.80;1812778;77;20997;-68
2022/03/08 11:58:21;;;;;;;4.58;1.50;;;;;;;7.50;74.04;100347.37;1810126;77;21646;-68
2022/03/08 12:00:55;;;;;;;2.30;1.52;;;;;;;7.49;73.82;100346.97;1815541;77;21295;-66
2022/03/08 12:03:33;;;;;;;3.77;1.90;;;;;;;7.54;74.08;100352.91;1819351;77;20940;-68
2022/03/08 12:06:03;;;;;;;3.70;1.35;;;;;;;7.46;72.01;100349.65;1822942;78;20987;-68
2022/03/08 12:08:36;;;;;;;2.42;1.20;;;;;;;7.68;73.95;100352.12;1821466;77;20901;-68
2022/03/08 12:11:24;;;;;;;2.45;1.10;;;;;;;7.80;73.55;100342.70;1818975;77;20940;-67
2022/03/08 12:14:01;;;;;;;2.55;1.70;;;;;;;7.73;73.76;100348.96;1821270;77;21081;-68
2022/03/08 12:16:28;;;;;;;3.47;1.47;;;;;;;7.74;71.37;100331.16;1816479;78;20879;-68
2022/03/08 12:19:01;;;;;;;4.05;2.20;;;;;;;7.69;73.38;100334.32;1823964;77;21538;-69
2022/03/08 12:21:31;;;;;;;5.72;1.90;;;;;;;7.61;72.37;100336.26;1821290;78;20950;-68